Terminal Aerodrome Forecast
Issued by NWS

Home | Current Version | Previous Version | Text Only | Print | Product List | Glossary On
Versions: 1 2 3 4 5 6 7 8 9 10 11 12 13 14 15 16 17 18 19 20 21 22 23 24 25 26 27 28 29 30
000
FTUS43 KILX 230946 AAC
TAFBMI
TAF AMD
KBMI 230946Z 2310/2406 VRB06KT 1 1/2SM BR VCSH OVC002
     FM231500 26009KT P6SM BKN003
     FM231700 26008KT P6SM BKN012
     FM232200 27009KT P6SM OVC250=

USA.gov is the U.S. government's official web portal to all federal, state and local government web resources and services.